createdAt,value
2023-04-15T00:01:19.905Z,4.60
2023-04-15T00:03:48.018Z,5.40
2023-04-15T00:06:15.868Z,5.10
2023-04-15T00:08:43.641Z,5.20
2023-04-15T00:11:11.605Z,5.40
2023-04-15T00:13:39.619Z,5.10
2023-04-15T00:16:08.571Z,4.80
2023-04-15T00:18:36.567Z,5.40
2023-04-15T00:21:05.153Z,6.10
2023-04-15T00:23:32.711Z,5.10
2023-04-15T00:26:00.588Z,5.40
2023-04-15T00:28:28.251Z,5.50
2023-04-15T00:30:56.578Z,5.30
2023-04-15T00:33:24.284Z,4.80
2023-04-15T00:35:51.917Z,5.90
2023-04-15T00:38:19.688Z,6.40
2023-04-15T00:40:47.267Z,6.10
2023-04-15T00:43:14.984Z,6.00
2023-04-15T00:45:43.504Z,6.70
2023-04-15T00:48:11.517Z,6.20
2023-04-15T00:50:39.149Z,5.80
2023-04-15T00:53:07.089Z,6.10
2023-04-15T00:55:34.726Z,5.90
2023-04-15T00:58:02.352Z,6.80
2023-04-15T01:00:30.494Z,6.20
2023-04-15T01:02:58.329Z,6.80
2023-04-15T01:05:27.111Z,7.00
2023-04-15T01:07:55.280Z,6.60
2023-04-15T01:10:23.116Z,6.30
2023-04-15T01:12:51.329Z,5.10
2023-04-15T01:15:19.030Z,5.20
2023-04-15T01:17:46.664Z,5.90
2023-04-15T01:20:15.991Z,6.10
2023-04-15T01:22:43.530Z,6.20
2023-04-15T01:25:13.280Z,5.60
2023-04-15T01:27:41.081Z,6.60
2023-04-15T01:30:09.407Z,8.10
2023-04-15T01:32:37.516Z,7.10
2023-04-15T01:35:05.581Z,6.70
2023-04-15T01:37:33.152Z,5.90
2023-04-15T01:40:00.719Z,10.70
2023-04-15T01:42:28.365Z,13.60
2023-04-15T01:44:55.963Z,10.60
2023-04-15T01:47:23.610Z,9.20
2023-04-15T01:49:51.732Z,9.10
2023-04-15T01:52:19.408Z,8.30
2023-04-15T01:54:47.161Z,7.80
2023-04-15T01:57:14.794Z,8.00
2023-04-15T01:59:42.729Z,7.60
2023-04-15T02:02:10.655Z,7.70
2023-04-15T02:04:38.428Z,7.60
2023-04-15T02:07:05.990Z,8.50
2023-04-15T02:09:33.731Z,8.20
2023-04-15T02:12:01.915Z,8.00
2023-04-15T02:14:29.472Z,9.90
2023-04-15T02:16:57.090Z,9.10
2023-04-15T02:19:25.221Z,8.80
2023-04-15T02:21:52.802Z,10.90
2023-04-15T02:24:20.721Z,11.90
2023-04-15T02:26:48.295Z,12.20
2023-04-15T02:29:15.879Z,13.30
2023-04-15T02:31:44.064Z,13.20
2023-04-15T02:34:11.770Z,12.00
2023-04-15T02:36:40.799Z,11.50
2023-04-15T02:39:08.713Z,9.00
2023-04-15T02:41:36.716Z,6.30
2023-04-15T02:44:04.412Z,4.90
2023-04-15T02:46:32.333Z,5.10
2023-04-15T02:49:00.459Z,5.50
2023-04-15T02:51:31.320Z,5.50
2023-04-15T02:53:58.964Z,5.90
2023-04-15T02:56:27.605Z,7.10
2023-04-15T02:58:56.296Z,11.10
2023-04-15T03:01:24.131Z,8.80
2023-04-15T03:03:51.870Z,6.50
2023-04-15T03:06:19.577Z,7.60
2023-04-15T03:08:47.195Z,7.40
2023-04-15T03:11:15.294Z,7.30
2023-04-15T03:13:43.466Z,6.80
2023-04-15T03:16:11.343Z,6.60
2023-04-15T03:18:39.058Z,6.20
2023-04-15T03:21:06.666Z,5.50
2023-04-15T03:23:34.251Z,5.60
2023-04-15T03:26:02.564Z,5.00
2023-04-15T03:28:30.409Z,4.50
2023-04-15T03:30:58.155Z,5.00
2023-04-15T03:33:26.025Z,4.90
2023-04-15T03:35:53.569Z,4.00
2023-04-15T03:38:21.239Z,4.80
2023-04-15T03:40:48.887Z,4.20
2023-04-15T03:43:16.774Z,3.50
2023-04-15T03:45:44.346Z,3.90
2023-04-15T03:48:17.724Z,4.70
2023-04-15T03:50:46.243Z,5.00
2023-04-15T03:53:14.484Z,4.20
2023-04-15T03:55:42.035Z,5.40
2023-04-15T03:58:12.987Z,5.00
2023-04-15T04:00:41.633Z,5.40
2023-04-15T04:03:09.486Z,6.00
2023-04-15T04:05:39.106Z,6.40
2023-04-15T04:08:07.010Z,5.80
2023-04-15T04:10:34.888Z,6.90
2023-04-15T04:13:02.466Z,7.10
2023-04-15T04:15:30.112Z,7.60
2023-04-15T04:17:58.003Z,7.70
2023-04-15T04:20:25.668Z,7.00
2023-04-15T04:22:53.251Z,9.20
2023-04-15T04:25:20.823Z,8.30
2023-04-15T04:27:48.369Z,9.30
2023-04-15T04:30:16.340Z,10.30
2023-04-15T04:32:43.976Z,10.00
2023-04-15T04:35:12.136Z,10.50
2023-04-15T04:37:39.808Z,11.20
2023-04-15T04:40:09.528Z,14.80
2023-04-15T04:42:39.777Z,14.70
2023-04-15T04:45:08.720Z,14.10
2023-04-15T04:47:36.512Z,14.20
2023-04-15T04:50:04.636Z,11.80
2023-04-15T04:52:32.200Z,10.70
2023-04-15T04:54:59.765Z,10.40
2023-04-15T04:57:27.352Z,11.00
2023-04-15T04:59:54.935Z,10.70
2023-04-15T05:02:22.768Z,11.90
2023-04-15T05:04:52.068Z,11.30
2023-04-15T05:07:20.998Z,11.20
2023-04-15T05:09:48.602Z,10.70
2023-04-15T05:12:16.284Z,11.60
2023-04-15T05:14:44.222Z,11.30
2023-04-15T05:17:12.507Z,11.60
2023-04-15T05:19:40.069Z,11.00
2023-04-15T05:22:08.243Z,12.30
2023-04-15T05:24:35.866Z,12.00
2023-04-15T05:27:03.701Z,12.80
2023-04-15T05:29:31.463Z,13.60
2023-04-15T05:31:59.000Z,13.00
2023-04-15T05:34:26.576Z,13.50
2023-04-15T05:36:54.159Z,13.30
2023-04-15T05:39:22.110Z,13.60
2023-04-15T05:41:49.692Z,14.70
2023-04-15T05:44:17.380Z,13.30
2023-04-15T05:46:45.215Z,12.40
2023-04-15T05:49:12.971Z,13.60
2023-04-15T05:51:40.644Z,12.90
2023-04-15T05:54:08.603Z,12.80
2023-04-15T05:56:37.098Z,12.20
2023-04-15T05:59:04.783Z,12.10
2023-04-15T06:01:33.698Z,11.40
2023-04-15T06:04:01.835Z,11.20
2023-04-15T06:06:29.552Z,11.90
2023-04-15T06:08:57.552Z,10.50
2023-04-15T06:11:26.848Z,11.60
2023-04-15T06:13:54.406Z,11.40
2023-04-15T06:16:23.211Z,10.10
2023-04-15T06:18:50.826Z,11.20
2023-04-15T06:21:18.380Z,10.20
2023-04-15T06:23:46.369Z,8.60
2023-04-15T06:26:13.941Z,8.20
2023-04-15T06:28:41.536Z,8.40
2023-04-15T06:31:09.313Z,8.00
2023-04-15T06:33:36.924Z,7.20
2023-04-15T06:36:04.600Z,6.60
2023-04-15T06:38:32.188Z,5.50
2023-04-15T06:40:59.778Z,4.20
2023-04-15T06:43:27.366Z,4.00
2023-04-15T06:45:54.981Z,4.80
2023-04-15T06:48:23.238Z,4.70
2023-04-15T06:50:50.975Z,5.50
2023-04-15T06:53:18.943Z,5.30
2023-04-15T06:55:46.624Z,5.90
2023-04-15T06:58:14.268Z,5.60
2023-04-15T07:00:42.099Z,5.20
2023-04-15T07:03:11.269Z,11.80
2023-04-15T07:05:39.241Z,7.30
2023-04-15T07:08:07.681Z,5.60
2023-04-15T07:10:35.317Z,5.10
2023-04-15T07:13:02.901Z,5.50
2023-04-15T07:15:30.571Z,8.60
2023-04-15T07:17:58.285Z,12.70
2023-04-15T07:20:26.086Z,12.60
2023-04-15T07:22:53.949Z,10.30
2023-04-15T07:25:21.570Z,4.70
2023-04-15T07:27:49.188Z,4.30
2023-04-15T07:30:17.038Z,4.00
2023-04-15T07:32:44.715Z,3.10
2023-04-15T07:35:12.441Z,3.10
2023-04-15T07:37:40.047Z,2.80
2023-04-15T07:40:09.021Z,4.10
2023-04-15T07:42:37.746Z,4.70
2023-04-15T07:45:07.394Z,4.20
2023-04-15T07:47:35.041Z,3.60
2023-04-15T07:50:02.631Z,4.50
2023-04-15T07:52:30.255Z,5.00
2023-04-15T07:54:57.831Z,4.30
2023-04-15T07:57:25.458Z,4.20
2023-04-15T07:59:53.028Z,3.50
2023-04-15T08:02:20.759Z,4.10
2023-04-15T08:04:48.811Z,3.40
2023-04-15T08:07:17.016Z,2.10
2023-04-15T08:09:44.558Z,1.90
2023-04-15T08:12:13.548Z,1.80
2023-04-15T08:14:41.190Z,1.90
2023-04-15T08:17:08.764Z,1.20
2023-04-15T08:19:36.376Z,1.40
2023-04-15T08:22:03.935Z,1.30
2023-04-15T08:24:31.697Z,1.10
2023-04-15T08:27:00.010Z,1.60
2023-04-15T08:29:27.815Z,1.80
2023-04-15T08:31:55.786Z,1.70
2023-04-15T08:34:24.097Z,1.60
2023-04-15T08:36:51.815Z,1.90
2023-04-15T08:39:19.387Z,2.00
2023-04-15T08:41:50.449Z,1.70
2023-04-15T08:44:18.152Z,1.80
2023-04-15T08:46:45.807Z,1.90
2023-04-15T08:49:13.499Z,2.00
2023-04-15T08:51:45.404Z,2.30
2023-04-15T08:54:13.149Z,2.20
2023-04-15T08:56:40.896Z,2.30
2023-04-15T08:59:08.999Z,2.60
2023-04-15T09:01:37.822Z,2.40
2023-04-15T09:04:07.825Z,2.60
2023-04-15T09:06:35.698Z,3.00
2023-04-15T09:09:03.523Z,2.90
2023-04-15T09:11:31.546Z,3.10
2023-04-15T09:13:59.329Z,3.00
2023-04-15T09:16:27.461Z,3.80
2023-04-15T09:18:55.176Z,3.60
2023-04-15T09:21:23.639Z,3.00
2023-04-15T09:24:01.801Z,3.00
2023-04-15T09:26:36.862Z,3.10
2023-04-15T09:29:08.653Z,2.90
2023-04-15T09:31:37.041Z,3.10
2023-04-15T09:34:04.875Z,3.50
2023-04-15T09:36:49.750Z,3.10
2023-04-15T09:39:18.523Z,3.00
2023-04-15T09:41:46.099Z,2.90
2023-04-15T09:44:26.901Z,2.60
2023-04-15T09:46:54.427Z,3.50
2023-04-15T09:49:22.268Z,3.40
2023-04-15T09:52:03.884Z,3.50
2023-04-15T09:54:36.577Z,3.20
2023-04-15T09:57:10.749Z,3.40
2023-04-15T09:59:38.618Z,2.80
2023-04-15T10:02:07.527Z,3.70
2023-04-15T10:04:36.839Z,3.10
2023-04-15T10:07:05.436Z,3.80
2023-04-15T10:09:34.215Z,3.20
2023-04-15T10:12:04.232Z,3.10
2023-04-15T10:14:33.670Z,2.90
2023-04-15T10:17:02.603Z,3.60
2023-04-15T10:19:32.375Z,3.40
2023-04-15T10:22:00.142Z,3.70
2023-04-15T10:24:27.883Z,4.80
2023-04-15T10:26:55.663Z,4.00
2023-04-15T10:29:25.838Z,3.90
2023-04-15T10:31:56.802Z,3.60
2023-04-15T10:34:24.652Z,3.70
2023-04-15T10:36:57.948Z,3.20
2023-04-15T10:39:34.959Z,3.50
2023-04-15T10:42:34.035Z,3.30
2023-04-15T10:45:02.086Z,3.70
2023-04-15T10:47:29.760Z,3.40
2023-04-15T10:49:58.984Z,3.40
2023-04-15T10:52:28.047Z,3.20
2023-04-15T10:55:12.607Z,3.40
2023-04-15T10:57:41.064Z,3.70
2023-04-15T11:00:08.937Z,3.10
2023-04-15T11:02:55.113Z,13.40
2023-04-15T11:05:24.198Z,4.70
2023-04-15T11:07:53.830Z,3.50
2023-04-15T11:10:21.452Z,3.50
2023-04-15T11:12:54.553Z,3.40
2023-04-15T11:15:34.493Z,3.30
2023-04-15T11:18:17.141Z,3.20
2023-04-15T11:20:47.266Z,3.20
2023-04-15T11:23:15.846Z,3.20
2023-04-15T11:25:44.159Z,2.80
2023-04-15T11:28:12.834Z,2.80
2023-04-15T11:30:40.812Z,2.80
2023-04-15T11:33:09.768Z,2.70
2023-04-15T11:35:37.614Z,3.00
2023-04-15T11:38:06.156Z,4.50
2023-04-15T11:40:33.809Z,3.30
2023-04-15T11:43:14.874Z,3.30
2023-04-15T11:46:00.064Z,2.70
2023-04-15T11:48:31.856Z,3.10
2023-04-15T11:51:03.932Z,2.50
2023-04-15T11:53:42.078Z,2.50
2023-04-15T11:56:11.084Z,2.50
2023-04-15T11:58:39.354Z,2.80
2023-04-15T12:01:07.394Z,2.90
2023-04-15T12:03:43.960Z,2.80
2023-04-15T12:06:19.401Z,2.80
2023-04-15T12:09:06.647Z,3.00
2023-04-15T12:11:43.831Z,3.20
2023-04-15T12:14:20.508Z,2.80
2023-04-15T12:16:51.181Z,2.70
2023-04-15T12:19:29.864Z,3.00
2023-04-15T12:22:14.012Z,3.50
2023-04-15T12:24:44.285Z,2.90
2023-04-15T12:27:12.324Z,2.80
2023-04-15T12:29:40.977Z,3.00
2023-04-15T12:32:12.903Z,2.70
2023-04-15T12:34:45.697Z,2.60
2023-04-15T12:37:14.385Z,2.30
2023-04-15T12:39:43.718Z,2.60
2023-04-15T12:42:11.943Z,2.90
2023-04-15T12:44:39.735Z,3.00
2023-04-15T12:47:08.190Z,2.90
2023-04-15T12:49:35.789Z,2.80
2023-04-15T12:52:03.505Z,3.00
2023-04-15T12:54:31.490Z,2.70
2023-04-15T12:56:59.300Z,2.90
2023-04-15T12:59:26.966Z,3.00
2023-04-15T13:01:54.929Z,4.50
2023-04-15T13:04:23.016Z,4.10
2023-04-15T13:06:50.944Z,3.70
2023-04-15T13:09:18.516Z,3.20
2023-04-15T13:11:46.347Z,3.10
2023-04-15T13:14:13.945Z,3.40
2023-04-15T13:16:41.717Z,3.50
2023-04-15T13:19:09.406Z,3.30
2023-04-15T13:21:37.040Z,3.30
2023-04-15T13:24:07.206Z,3.40
2023-04-15T13:26:35.091Z,3.00
2023-04-15T13:29:02.765Z,3.20
2023-04-15T13:31:30.677Z,3.10
2023-04-15T13:33:58.316Z,3.70
2023-04-15T13:36:26.731Z,31.50
2023-04-15T13:38:54.501Z,5.40
2023-04-15T13:41:22.210Z,5.20
2023-04-15T13:43:49.791Z,20.70
2023-04-15T13:46:17.645Z,5.90
2023-04-15T13:48:45.360Z,22.60
2023-04-15T13:51:12.966Z,7.80
2023-04-15T13:53:40.608Z,4.30
2023-04-15T13:56:08.553Z,4.20
2023-04-15T13:58:37.058Z,3.70
2023-04-15T14:01:06.137Z,4.70
2023-04-15T14:03:35.411Z,3.70
2023-04-15T14:06:03.239Z,4.10
2023-04-15T14:08:31.574Z,4.10
2023-04-15T14:10:59.261Z,4.20
2023-04-15T14:13:28.131Z,4.40
2023-04-15T14:15:57.067Z,3.60
2023-04-15T14:18:24.669Z,3.40
2023-04-15T14:20:52.303Z,3.70
2023-04-15T14:23:19.899Z,5.20
2023-04-15T14:25:48.498Z,4.00
2023-04-15T14:28:16.241Z,3.80
2023-04-15T14:30:43.914Z,3.20
2023-04-15T14:33:11.693Z,3.30
2023-04-15T14:35:39.473Z,3.40
2023-04-15T14:38:10.566Z,3.20
2023-04-15T14:40:38.583Z,3.00
2023-04-15T14:43:06.165Z,2.90
2023-04-15T14:45:33.909Z,3.60
2023-04-15T14:48:01.580Z,3.20
2023-04-15T14:50:29.335Z,2.90
2023-04-15T14:52:56.910Z,4.10
2023-04-15T14:55:24.551Z,3.50
2023-04-15T14:57:52.148Z,3.50
2023-04-15T15:00:19.825Z,3.00
2023-04-15T15:02:47.577Z,3.70
2023-04-15T15:05:16.321Z,3.30
2023-04-15T15:07:44.210Z,3.60
2023-04-15T15:10:11.847Z,3.10
2023-04-15T15:12:39.416Z,5.90
2023-04-15T15:15:19.580Z,3.60
2023-04-15T15:17:55.249Z,5.70
2023-04-15T15:20:23.538Z,8.60
2023-04-15T15:22:51.230Z,4.30
2023-04-15T15:25:18.902Z,3.60
2023-04-15T15:27:46.521Z,6.00
2023-04-15T15:30:14.184Z,15.90
2023-04-15T15:32:42.200Z,20.90
2023-04-15T15:35:09.959Z,12.90
2023-04-15T15:37:37.588Z,6.90
2023-04-15T15:40:05.701Z,6.00
2023-04-15T15:42:33.561Z,6.70
2023-04-15T15:45:03.780Z,5.70
2023-04-15T15:47:32.096Z,6.30
2023-04-15T15:50:00.514Z,6.10
2023-04-15T15:52:28.209Z,5.30
2023-04-15T15:54:56.051Z,5.40
2023-04-15T15:57:23.639Z,5.70
2023-04-15T16:00:00.774Z,6.40
2023-04-15T16:03:04.186Z,5.50
2023-04-15T16:05:25.657Z,5.00
2023-04-15T16:07:53.277Z,6.70
2023-04-15T16:10:20.982Z,5.10
2023-04-15T16:12:48.647Z,4.60
2023-04-15T16:15:16.264Z,4.80
2023-04-15T16:17:43.899Z,5.30
2023-04-15T16:20:11.541Z,4.20
2023-04-15T16:22:39.159Z,3.60
2023-04-15T16:25:07.237Z,3.30
2023-04-15T16:27:40.753Z,3.60
2023-04-15T16:30:17.884Z,3.60
2023-04-15T16:32:45.654Z,3.80
2023-04-15T16:35:14.527Z,4.00
2023-04-15T16:37:42.189Z,3.40
2023-04-15T16:40:10.285Z,3.60
2023-04-15T16:42:37.891Z,3.60
2023-04-15T16:45:06.221Z,4.00
2023-04-15T16:47:33.993Z,3.90
2023-04-15T16:50:01.705Z,3.60
2023-04-15T16:52:29.377Z,4.10
2023-04-15T16:54:57.043Z,4.70
2023-04-15T16:57:24.736Z,4.70
2023-04-15T16:59:59.341Z,4.30
2023-04-15T17:02:27.037Z,4.80
2023-04-15T17:04:55.451Z,4.20
2023-04-15T17:07:23.129Z,4.60
2023-04-15T17:09:51.634Z,4.10
2023-04-15T17:12:20.512Z,5.00
2023-04-15T17:14:48.156Z,5.50
2023-04-15T17:17:20.727Z,5.60
2023-04-15T17:19:48.474Z,5.00
2023-04-15T17:22:17.170Z,5.40
2023-04-15T17:24:44.852Z,6.30
2023-04-15T17:27:12.556Z,5.80
2023-04-15T17:29:40.213Z,6.10
2023-04-15T17:32:08.036Z,7.50
2023-04-15T17:34:49.914Z,17.90
2023-04-15T17:37:19.166Z,41.80
2023-04-15T17:39:46.792Z,11.80
2023-04-15T17:42:14.429Z,7.80
2023-04-15T17:44:42.177Z,5.60
2023-04-15T17:47:09.773Z,5.20
2023-04-15T17:49:37.911Z,5.10
2023-04-15T17:52:05.899Z,4.60
2023-04-15T17:54:33.500Z,4.90
2023-04-15T17:57:03.259Z,5.30
2023-04-15T17:59:31.022Z,5.70
2023-04-15T18:01:58.733Z,5.70
2023-04-15T18:04:27.033Z,6.80
2023-04-15T18:06:54.910Z,15.40
2023-04-15T18:09:22.473Z,19.40
2023-04-15T18:11:50.464Z,12.90
2023-04-15T18:14:31.202Z,7.20
2023-04-15T18:17:05.104Z,8.00
2023-04-15T18:19:33.014Z,6.60
2023-04-15T18:22:00.902Z,7.10
2023-04-15T18:24:28.989Z,11.40
2023-04-15T18:26:57.264Z,22.60
2023-04-15T18:29:25.408Z,18.10
2023-04-15T18:31:53.192Z,11.70
2023-04-15T18:34:20.926Z,7.80
2023-04-15T18:36:48.531Z,10.20
2023-04-15T18:39:17.036Z,12.30
2023-04-15T18:41:44.961Z,11.70
2023-04-15T18:44:12.546Z,15.80
2023-04-15T18:46:40.351Z,14.30
2023-04-15T18:49:08.370Z,14.40
2023-04-15T18:51:35.973Z,11.60
2023-04-15T18:54:03.658Z,11.10
2023-04-15T18:56:31.632Z,9.40
2023-04-15T18:59:28.373Z,13.40
2023-04-15T19:01:46.799Z,9.10
2023-04-15T19:04:15.028Z,8.60
2023-04-15T19:06:42.979Z,7.40
2023-04-15T19:09:10.996Z,10.30
2023-04-15T19:11:39.070Z,7.40
2023-04-15T19:14:06.728Z,8.90
2023-04-15T19:16:34.627Z,9.70
2023-04-15T19:19:02.419Z,11.80
2023-04-15T19:21:31.623Z,9.60
2023-04-15T19:24:00.511Z,10.60
2023-04-15T19:26:28.164Z,13.30
2023-04-15T19:28:58.830Z,13.80
2023-04-15T19:31:27.066Z,10.50
2023-04-15T19:33:55.018Z,9.30
2023-04-15T19:36:22.702Z,8.30
2023-04-15T19:38:50.458Z,11.30
2023-04-15T19:41:18.023Z,10.50
2023-04-15T19:43:45.992Z,8.60
2023-04-15T19:46:13.807Z,6.90
2023-04-15T19:48:41.805Z,7.20
2023-04-15T19:51:09.572Z,7.70
2023-04-15T19:53:37.166Z,8.00
2023-04-15T19:56:04.913Z,6.70
2023-04-15T19:58:32.760Z,8.00
2023-04-15T20:01:01.410Z,7.80
2023-04-15T20:03:29.274Z,9.40
2023-04-15T20:05:57.140Z,6.90
2023-04-15T20:08:24.798Z,7.10
2023-04-15T20:10:52.399Z,8.70
2023-04-15T20:13:20.018Z,9.70
2023-04-15T20:15:47.674Z,15.30
2023-04-15T20:18:15.345Z,29.90
2023-04-15T20:20:46.479Z,26.60
2023-04-15T20:23:14.080Z,17.40
2023-04-15T20:25:42.030Z,13.70
2023-04-15T20:28:09.627Z,14.80
2023-04-15T20:30:39.401Z,24.90
2023-04-15T20:33:08.166Z,16.90
2023-04-15T20:35:36.028Z,9.30
2023-04-15T20:38:04.525Z,9.50
2023-04-15T20:40:33.710Z,7.60
2023-04-15T20:43:01.360Z,6.40
2023-04-15T20:45:29.047Z,6.70
2023-04-15T20:47:56.627Z,9.80
2023-04-15T20:50:24.270Z,9.20
2023-04-15T20:52:51.871Z,10.40
2023-04-15T20:55:19.581Z,11.00
2023-04-15T20:57:48.458Z,11.90
2023-04-15T21:00:16.324Z,11.50
2023-04-15T21:02:44.103Z,10.70
2023-04-15T21:05:11.920Z,10.60
2023-04-15T21:07:41.084Z,11.60
2023-04-15T21:10:09.252Z,9.70
2023-04-15T21:12:40.727Z,8.50
2023-04-15T21:15:09.130Z,9.60
2023-04-15T21:17:36.731Z,10.30
2023-04-15T21:20:04.912Z,9.50
2023-04-15T21:22:32.492Z,9.50
2023-04-15T21:25:00.159Z,8.60
2023-04-15T21:27:27.723Z,11.20
2023-04-15T21:29:55.659Z,8.80
2023-04-15T21:32:23.310Z,8.40
2023-04-15T21:34:50.877Z,9.00
2023-04-15T21:37:18.448Z,10.90
2023-04-15T21:39:46.118Z,10.40
2023-04-15T21:42:13.833Z,9.90
2023-04-15T21:44:41.501Z,9.90
2023-04-15T21:47:09.202Z,9.80
2023-04-15T21:49:37.098Z,10.60
2023-04-15T21:52:04.752Z,10.60
2023-04-15T21:54:33.370Z,10.00
2023-04-15T21:57:01.878Z,8.90
2023-04-15T21:59:29.488Z,10.40
2023-04-15T22:01:57.153Z,9.80
2023-04-15T22:04:25.035Z,10.30
2023-04-15T22:06:55.729Z,9.50
2023-04-15T22:09:23.437Z,11.60
2023-04-15T22:11:51.030Z,11.00
2023-04-15T22:14:18.619Z,11.20
2023-04-15T22:16:46.220Z,10.50
2023-04-15T22:19:13.838Z,10.90
2023-04-15T22:21:41.392Z,11.50
2023-04-15T22:24:33.540Z,13.50
2023-04-15T22:26:56.753Z,12.90
2023-04-15T22:29:25.176Z,12.20
2023-04-15T22:31:52.853Z,12.80
2023-04-15T22:34:21.852Z,11.20
2023-04-15T22:36:50.800Z,12.80
2023-04-15T22:39:19.149Z,21.50
2023-04-15T22:41:46.798Z,34.20
2023-04-15T22:44:14.409Z,27.80
2023-04-15T22:46:42.631Z,20.00
2023-04-15T22:49:10.525Z,17.70
2023-04-15T22:51:38.403Z,18.20
2023-04-15T22:54:06.169Z,18.10
2023-04-15T22:56:33.840Z,17.00
2023-04-15T22:59:01.454Z,16.20
2023-04-15T23:01:29.146Z,19.00
2023-04-15T23:04:07.009Z,18.70
2023-04-15T23:06:37.474Z,24.60
2023-04-15T23:09:05.090Z,34.70
2023-04-15T23:11:44.414Z,34.80
2023-04-15T23:14:14.874Z,44.10
2023-04-15T23:16:42.476Z,39.20
2023-04-15T23:19:10.323Z,33.80
2023-04-15T23:21:38.432Z,25.70
2023-04-15T23:24:06.804Z,24.50
2023-04-15T23:26:34.432Z,18.90
2023-04-15T23:29:02.050Z,17.40
2023-04-15T23:31:29.811Z,15.40
2023-04-15T23:33:57.395Z,14.40
2023-04-15T23:36:24.988Z,12.90
2023-04-15T23:38:52.594Z,12.40
2023-04-15T23:41:20.342Z,11.90
2023-04-15T23:43:48.084Z,10.80
2023-04-15T23:46:15.841Z,10.70
2023-04-15T23:48:43.544Z,11.60
2023-04-15T23:51:11.195Z,11.10
2023-04-15T23:53:38.780Z,9.50
2023-04-15T23:56:06.611Z,8.90
2023-04-15T23:58:34.753Z,10.50
